createdAt,value
2019-01-10T00:00:23.543Z,411.23
2019-01-10T00:02:51.978Z,384.67
2019-01-10T00:05:20.503Z,400.13
2019-01-10T00:07:49.192Z,399.87
2019-01-10T00:10:18.375Z,405.77
2019-01-10T00:12:47.140Z,411.90
2019-01-10T00:15:17.948Z,408.47
2019-01-10T00:17:46.464Z,445.70
2019-01-10T00:20:18.741Z,426.40
2019-01-10T00:22:47.212Z,451.10
2019-01-10T00:25:16.108Z,454.77
2019-01-10T00:27:45.555Z,455.00
2019-01-10T00:30:16.782Z,456.10
2019-01-10T00:32:45.455Z,455.33
2019-01-10T00:35:14.030Z,466.77
2019-01-10T00:37:42.554Z,434.90
2019-01-10T00:40:13.654Z,431.57
2019-01-10T00:42:49.246Z,432.60
2019-01-10T00:45:14.767Z,399.67
2019-01-10T00:47:43.284Z,396.83
2019-01-10T00:50:23.591Z,356.17
2019-01-10T00:52:53.063Z,365.47
2019-01-10T00:55:21.467Z,364.97
2019-01-10T00:57:50.391Z,386.47
2019-01-10T01:00:23.911Z,371.87
2019-01-10T01:02:52.463Z,358.00
2019-01-10T01:05:21.707Z,341.77
2019-01-10T01:07:50.218Z,386.83
2019-01-10T01:10:21.361Z,406.90
2019-01-10T01:12:57.976Z,338.20
2019-01-10T01:15:19.915Z,305.13
2019-01-10T01:17:48.577Z,373.60
2019-01-10T01:20:19.045Z,423.33
2019-01-10T01:22:48.011Z,439.73
2019-01-10T01:25:17.170Z,438.43
2019-01-10T01:27:45.807Z,418.63
2019-01-10T01:30:18.144Z,377.77
2019-01-10T01:32:46.548Z,385.83
2019-01-10T01:35:15.520Z,384.10
2019-01-10T01:37:44.423Z,373.07
2019-01-10T01:40:15.374Z,335.53
2019-01-10T01:42:44.116Z,310.77
2019-01-10T01:45:13.786Z,285.27
2019-01-10T01:47:42.454Z,268.87
2019-01-10T01:50:14.391Z,261.90
2019-01-10T01:52:43.099Z,276.20
2019-01-10T01:55:12.090Z,354.90
2019-01-10T01:57:40.495Z,279.93
2019-01-10T02:00:14.533Z,284.97
2019-01-10T02:08:41.503Z,272.03
2019-01-10T02:11:09.902Z,255.77
2019-01-10T02:13:38.486Z,244.60
2019-01-10T02:16:07.272Z,251.87
2019-01-10T02:18:35.671Z,249.10
2019-01-10T02:21:04.440Z,247.60
2019-01-10T02:23:33.142Z,238.87
2019-01-10T02:26:02.016Z,251.23
2019-01-10T02:28:30.739Z,245.43
2019-01-10T02:31:00.507Z,248.83
2019-01-10T02:33:29.075Z,247.53
2019-01-10T02:35:57.541Z,253.67
2019-01-10T02:38:26.396Z,257.77
2019-01-10T02:40:55.235Z,264.47
2019-01-10T02:43:26.579Z,251.63
2019-01-10T02:45:54.355Z,246.90
2019-01-10T02:48:23.147Z,247.13
2019-01-10T02:50:51.544Z,241.53
2019-01-10T02:53:20.619Z,258.33
2019-01-10T02:55:49.372Z,244.67
2019-01-10T02:58:17.768Z,247.23
2019-01-10T03:00:46.372Z,262.17
2019-01-10T03:03:14.991Z,250.80
2019-01-10T03:05:43.396Z,253.47
2019-01-10T03:08:12.216Z,256.70
2019-01-10T03:10:40.876Z,278.17
2019-01-10T03:13:09.340Z,279.47
2019-01-10T03:15:40.571Z,305.97
2019-01-10T03:18:09.342Z,357.23
2019-01-10T03:20:37.888Z,406.63
2019-01-10T03:23:06.375Z,469.97
2019-01-10T03:25:34.954Z,433.00
2019-01-10T03:28:03.699Z,412.57
2019-01-10T03:30:32.434Z,411.53
2019-01-10T03:33:01.141Z,398.50
2019-01-10T03:35:29.704Z,358.93
2019-01-10T04:02:02.736Z,220.03
2019-01-10T04:04:31.665Z,210.33
2019-01-10T04:07:00.230Z,201.37
2019-01-10T04:09:28.756Z,191.60
2019-01-10T04:11:57.372Z,203.70
2019-01-10T04:14:25.779Z,195.40
2019-01-10T04:16:54.522Z,196.50
2019-01-10T04:19:23.014Z,188.93
2019-01-10T04:21:51.580Z,183.50
2019-01-10T04:24:20.030Z,186.17
2019-01-10T04:26:48.420Z,179.37
2019-01-10T04:29:16.929Z,175.43
2019-01-10T04:31:45.585Z,169.57
2019-01-10T04:34:14.471Z,172.67
2019-01-10T04:36:43.259Z,163.30
2019-01-10T04:39:11.764Z,180.17
2019-01-10T04:41:40.590Z,175.30
2019-01-10T04:44:09.331Z,179.40
2019-01-10T04:46:38.199Z,197.97
2019-01-10T04:49:06.933Z,193.60
2019-01-10T04:51:35.387Z,190.27
2019-01-10T04:54:04.108Z,195.20
2019-01-10T04:56:32.739Z,179.90
2019-01-10T04:59:01.155Z,185.43
2019-01-10T05:01:29.732Z,191.30
2019-01-10T05:03:58.398Z,217.17
2019-01-10T05:06:26.866Z,352.47
2019-01-10T05:08:55.507Z,409.37
2019-01-10T05:11:24.279Z,369.33
2019-01-10T05:13:52.722Z,412.57
2019-01-10T05:16:21.307Z,211.83
2019-01-10T05:18:50.135Z,139.97
2019-01-10T05:21:18.534Z,227.87
2019-01-10T05:23:46.964Z,242.20
2019-01-10T05:26:15.414Z,218.07
2019-01-10T05:28:44.135Z,202.13
2019-01-10T05:31:13.028Z,209.87
2019-01-10T05:33:41.423Z,207.43
2019-01-10T05:36:10.278Z,205.07
2019-01-10T05:38:38.978Z,207.97
2019-01-10T05:41:07.449Z,196.57
2019-01-10T05:43:36.148Z,205.73
2019-01-10T05:46:04.580Z,181.60
2019-01-10T05:48:33.499Z,196.40
2019-01-10T05:51:02.275Z,176.83
2019-01-10T05:53:31.094Z,174.67
2019-01-10T05:55:59.502Z,181.67
2019-01-10T05:58:27.890Z,176.57
2019-01-10T06:00:56.492Z,177.47
2019-01-10T06:03:25.487Z,168.43
2019-01-10T06:05:54.908Z,168.40
2019-01-10T06:08:23.593Z,178.03
2019-01-10T06:10:52.157Z,168.77
2019-01-10T06:13:20.723Z,173.40
2019-01-10T06:15:49.620Z,169.10
2019-01-10T06:18:18.019Z,175.47
2019-01-10T06:20:46.579Z,178.57
2019-01-10T06:23:15.278Z,192.17
2019-01-10T06:25:43.888Z,176.70
2019-01-10T06:28:12.668Z,189.37
2019-01-10T06:30:41.375Z,170.67
2019-01-10T06:33:09.824Z,190.93
2019-01-10T06:35:38.417Z,186.83
2019-01-10T06:38:06.847Z,186.53
2019-01-10T06:40:35.458Z,170.00
2019-01-10T06:43:03.855Z,194.13
2019-01-10T06:45:32.292Z,187.10
2019-01-10T06:48:00.892Z,191.77
2019-01-10T06:50:29.286Z,179.50
2019-01-10T06:52:57.722Z,183.27
2019-01-10T06:55:26.114Z,189.00
2019-01-10T06:57:54.599Z,213.60
2019-01-10T07:00:24.236Z,196.93
2019-01-10T07:02:52.772Z,265.90
2019-01-10T07:18:14.209Z,321.53
2019-01-10T07:20:42.653Z,317.17
2019-01-10T07:23:11.082Z,299.63
2019-01-10T07:25:39.593Z,302.87
2019-01-10T07:28:24.471Z,320.70
2019-01-10T07:30:54.260Z,329.77
2019-01-10T07:33:22.816Z,314.73
2019-01-10T07:35:55.396Z,300.00
2019-01-10T07:38:24.371Z,287.40
2019-01-10T07:40:53.106Z,298.43
2019-01-10T07:43:22.944Z,288.60
2019-01-10T07:45:51.389Z,286.87
2019-01-10T07:48:19.860Z,303.67
2019-01-10T07:50:48.806Z,295.13
2019-01-10T07:53:17.447Z,302.57
2019-01-10T07:55:46.316Z,359.77
2019-01-10T07:58:14.976Z,372.53
2019-01-10T08:00:43.415Z,443.37
2019-01-10T08:03:11.994Z,444.60
2019-01-10T08:05:40.869Z,422.47
2019-01-10T08:08:09.448Z,408.07
2019-01-10T08:10:38.630Z,319.37
2019-01-10T08:13:07.175Z,229.60
2019-01-10T08:15:35.882Z,196.87
2019-01-10T08:18:04.528Z,176.67
2019-01-10T08:20:34.034Z,154.53
2019-01-10T08:23:02.491Z,143.63
2019-01-10T08:25:31.147Z,171.43
2019-01-10T08:27:59.776Z,158.27
2019-01-10T08:30:28.531Z,198.87
2019-01-10T08:32:57.196Z,145.67
2019-01-10T08:35:25.907Z,109.80
2019-01-10T08:37:54.411Z,175.03
2019-01-10T08:40:22.807Z,216.43
2019-01-10T08:42:51.572Z,194.53
2019-01-10T08:45:21.717Z,152.17
2019-01-10T08:47:50.703Z,101.20
2019-01-10T08:50:21.434Z,145.90
2019-01-10T08:52:49.930Z,129.47
2019-01-10T08:55:18.269Z,133.07
2019-01-10T08:57:46.947Z,117.20
2019-01-10T09:00:18.084Z,116.53
2019-01-10T09:02:46.718Z,120.33
2019-01-10T09:05:15.568Z,121.53
2019-01-10T09:07:44.270Z,115.20
2019-01-10T09:10:21.442Z,128.10
2019-01-10T09:12:50.198Z,151.10
2019-01-10T09:15:25.272Z,99.40
2019-01-10T09:17:49.067Z,92.30
2019-01-10T09:20:17.535Z,83.23
2019-01-10T09:22:46.906Z,83.37
2019-01-10T09:25:17.698Z,77.97
2019-01-10T09:27:46.199Z,78.93
2019-01-10T09:30:21.269Z,89.77
2019-01-10T09:32:50.220Z,82.60
2019-01-10T09:35:19.379Z,77.37
2019-01-10T09:37:47.848Z,75.77
2019-01-10T09:40:18.525Z,76.43
2019-01-10T09:42:47.436Z,73.20
2019-01-10T09:45:21.060Z,78.83
2019-01-10T09:47:49.760Z,96.23
2019-01-10T09:50:20.194Z,118.23
2019-01-10T09:52:49.082Z,97.77
2019-01-10T09:55:18.235Z,122.10
2019-01-10T09:57:46.635Z,106.33
2019-01-10T10:00:20.662Z,97.97
2019-01-10T10:02:49.382Z,127.13
2019-01-10T10:05:18.024Z,113.30
2019-01-10T10:07:46.589Z,107.23
2019-01-10T10:10:18.412Z,94.83
2019-01-10T10:12:47.250Z,82.43
2019-01-10T10:15:17.359Z,88.40
2019-01-10T10:17:49.854Z,95.43
2019-01-10T10:20:20.547Z,96.47
2019-01-10T10:22:49.127Z,89.90
2019-01-10T10:25:18.707Z,85.30
2019-01-10T10:27:47.174Z,103.90
2019-01-10T10:30:17.808Z,78.13
2019-01-10T10:32:46.878Z,82.77
2019-01-10T10:35:15.562Z,80.33
2019-01-10T10:37:45.092Z,134.17
2019-01-10T10:40:16.071Z,134.27
2019-01-10T10:42:44.802Z,97.90
2019-01-10T10:45:18.050Z,92.53
2019-01-10T10:47:46.483Z,92.00
2019-01-10T10:50:20.683Z,99.47
2019-01-10T10:52:49.075Z,80.70
2019-01-10T10:55:17.768Z,65.17
2019-01-10T10:57:46.270Z,88.33
2019-01-10T11:00:20.884Z,100.40
2019-01-10T11:02:49.593Z,74.43
2019-01-10T11:05:18.595Z,95.93
2019-01-10T11:07:47.363Z,117.37
2019-01-10T11:10:19.319Z,113.30
2019-01-10T11:12:49.383Z,117.73
2019-01-10T11:15:18.579Z,137.33
2019-01-10T11:17:49.897Z,78.87
2019-01-10T11:20:20.837Z,123.03
2019-01-10T11:22:49.919Z,125.37
2019-01-10T11:25:23.923Z,106.33
2019-01-10T11:27:53.404Z,257.00
2019-01-10T11:30:22.175Z,169.63
2019-01-10T11:32:51.110Z,158.03
2019-01-10T11:35:19.666Z,139.40
2019-01-10T11:37:49.279Z,87.47
2019-01-10T11:40:20.353Z,83.70
2019-01-10T11:42:50.927Z,99.77
2019-01-10T11:45:21.615Z,160.63
2019-01-10T11:47:50.083Z,137.10
2019-01-10T11:50:19.360Z,112.37
2019-01-10T11:52:48.294Z,96.43
2019-01-10T11:55:17.878Z,115.17
2019-01-10T11:57:46.917Z,97.93
2019-01-10T12:00:18.967Z,126.83
2019-01-10T12:02:47.858Z,108.70
2019-01-10T12:05:16.377Z,97.20
2019-01-10T12:07:45.372Z,84.67
2019-01-10T12:10:13.968Z,94.53
2019-01-10T12:12:42.477Z,83.87
2019-01-10T12:15:12.473Z,94.30
2019-01-10T12:17:40.983Z,93.63
2019-01-10T12:20:12.468Z,89.27
2019-01-10T12:22:41.292Z,130.73
2019-01-10T12:25:12.078Z,104.93
2019-01-10T12:27:40.650Z,191.97
2019-01-10T12:30:16.243Z,157.43
2019-01-10T12:32:44.944Z,202.77
2019-01-10T12:35:13.644Z,100.20
2019-01-10T12:37:42.698Z,140.20
2019-01-10T12:40:13.556Z,139.97
2019-01-10T12:42:42.576Z,185.33
2019-01-10T12:45:13.151Z,162.30
2019-01-10T12:47:41.737Z,143.23
2019-01-10T12:50:19.107Z,100.60
2019-01-10T12:52:47.516Z,106.13
2019-01-10T12:55:16.268Z,103.70
2019-01-10T12:57:44.998Z,173.70
2019-01-10T13:00:16.506Z,164.63
2019-01-10T13:02:45.203Z,105.83
2019-01-10T13:05:13.703Z,91.80
2019-01-10T13:07:42.368Z,83.70
2019-01-10T13:10:16.209Z,96.20
2019-01-10T13:12:45.094Z,121.33
2019-01-10T13:15:17.006Z,119.93
2019-01-10T13:17:45.647Z,108.17
2019-01-10T13:20:14.456Z,110.77
2019-01-10T13:22:43.125Z,102.57
2019-01-10T13:25:14.468Z,107.23
2019-01-10T13:27:44.472Z,102.53
2019-01-10T13:30:20.371Z,114.20
2019-01-10T13:32:49.867Z,120.70
2019-01-10T13:35:18.679Z,118.30
2019-01-10T13:37:47.303Z,118.00
2019-01-10T13:40:17.480Z,142.97
2019-01-10T13:42:50.987Z,124.47
2019-01-10T13:45:20.730Z,121.17
2019-01-10T13:47:51.279Z,111.53
2019-01-10T13:50:23.788Z,97.20
2019-01-10T13:52:56.345Z,106.10
2019-01-10T13:55:29.275Z,107.43
2019-01-10T13:58:02.924Z,102.77
2019-01-10T14:00:35.763Z,91.23
2019-01-10T14:03:11.526Z,89.27
2019-01-10T14:05:36.066Z,119.17
2019-01-10T14:08:05.034Z,102.07
2019-01-10T14:10:36.288Z,106.73
2019-01-10T14:13:08.580Z,102.57
2019-01-10T14:15:38.198Z,105.87
2019-01-10T14:18:10.603Z,135.87
2019-01-10T14:20:40.511Z,109.40
2019-01-10T14:23:12.580Z,96.53
2019-01-10T14:25:46.775Z,82.33
2019-01-10T14:28:18.819Z,87.57
2019-01-10T14:30:49.636Z,104.80
2019-01-10T14:33:22.255Z,100.73
2019-01-10T14:35:53.674Z,107.27
2019-01-10T14:38:22.636Z,106.07
2019-01-10T14:40:54.235Z,98.37
2019-01-10T14:43:25.430Z,100.53
2019-01-10T14:45:55.189Z,110.37
2019-01-10T14:48:28.671Z,114.80
2019-01-10T14:50:57.178Z,101.47
2019-01-10T14:53:26.951Z,101.97
2019-01-10T14:55:56.333Z,103.47
2019-01-10T14:58:25.023Z,111.57
2019-01-10T15:00:55.623Z,105.30
2019-01-10T15:03:26.425Z,123.37
2019-01-10T15:05:56.658Z,132.13
2019-01-10T15:08:27.605Z,144.23
2019-01-10T15:10:56.325Z,151.83
2019-01-10T15:13:24.732Z,141.40
2019-01-10T15:15:56.953Z,145.73
2019-01-10T15:18:31.836Z,145.10
2019-01-10T15:21:00.354Z,151.37
2019-01-10T15:23:30.671Z,134.57
2019-01-10T15:25:59.999Z,135.13
2019-01-10T15:28:30.176Z,133.77
2019-01-10T15:31:00.262Z,137.73
2019-01-10T15:33:37.759Z,118.97
2019-01-10T15:36:07.812Z,112.90
2019-01-10T15:38:38.475Z,122.97
2019-01-10T15:41:09.144Z,135.97
2019-01-10T15:43:38.810Z,131.43
2019-01-10T15:46:14.059Z,136.60
2019-01-10T15:48:46.474Z,133.03
2019-01-10T15:51:16.441Z,138.83
2019-01-10T15:53:46.335Z,166.87
2019-01-10T15:56:18.426Z,152.63
2019-01-10T15:58:49.116Z,158.37
2019-01-10T16:01:18.701Z,147.80
2019-01-10T16:03:48.702Z,146.90
2019-01-10T16:06:18.970Z,192.13
2019-01-10T16:08:47.577Z,166.97
2019-01-10T16:11:16.884Z,208.27
2019-01-10T16:13:45.688Z,248.37
2019-01-10T16:16:14.875Z,187.97
2019-01-10T16:18:46.218Z,139.40
2019-01-10T16:21:16.854Z,164.27
2019-01-10T16:23:45.288Z,143.03
2019-01-10T16:26:15.975Z,115.47
2019-01-10T16:28:47.200Z,86.17
2019-01-10T16:31:21.918Z,133.47
2019-01-10T16:33:56.433Z,101.07
2019-01-10T16:36:28.147Z,120.03
2019-01-10T16:39:00.609Z,103.03
2019-01-10T16:41:31.265Z,114.37
2019-01-10T16:44:07.726Z,106.40
2019-01-10T16:46:37.887Z,98.27
2019-01-10T16:49:13.569Z,79.87
2019-01-10T16:51:42.150Z,88.77
2019-01-10T16:54:12.896Z,78.83
2019-01-10T16:56:44.750Z,93.67
2019-01-10T16:59:14.942Z,131.80
2019-01-10T17:01:45.920Z,167.30
2019-01-10T17:04:17.792Z,125.67
2019-01-10T17:06:46.467Z,170.33
2019-01-10T17:09:17.852Z,203.77
2019-01-10T17:11:50.247Z,147.27
2019-01-10T17:14:22.810Z,129.60
2019-01-10T17:16:53.356Z,162.60
2019-01-10T17:19:24.282Z,161.90
2019-01-10T17:21:55.015Z,160.73
2019-01-10T17:24:26.759Z,195.87
2019-01-10T17:26:58.357Z,182.30
2019-01-10T17:29:29.340Z,140.43
2019-01-10T17:32:00.579Z,206.60
2019-01-10T17:34:29.255Z,184.93
2019-01-10T17:37:00.252Z,227.43
2019-01-10T17:39:31.546Z,212.67
2019-01-10T17:42:02.752Z,215.47
2019-01-10T17:44:34.395Z,259.23
2019-01-10T17:47:02.941Z,175.10
2019-01-10T17:49:33.713Z,207.73
2019-01-10T17:52:05.064Z,194.40
2019-01-10T17:54:35.483Z,172.53
2019-01-10T17:57:05.723Z,203.03
2019-01-10T17:59:35.987Z,212.50
2019-01-10T18:02:04.367Z,216.43
2019-01-10T18:04:35.036Z,189.57
2019-01-10T18:07:05.486Z,203.60
2019-01-10T18:09:34.325Z,143.97
2019-01-10T18:12:04.953Z,173.47
2019-01-10T18:14:35.275Z,223.10
2019-01-10T18:17:05.503Z,164.87
2019-01-10T18:19:35.655Z,187.30
2019-01-10T18:22:06.364Z,199.83
2019-01-10T18:24:38.402Z,212.47
2019-01-10T18:27:08.373Z,186.47
2019-01-10T18:29:38.882Z,202.13
2019-01-10T18:32:09.195Z,221.53
2019-01-10T18:34:39.340Z,257.10
2019-01-10T18:37:10.677Z,298.37
2019-01-10T18:39:41.114Z,256.57
2019-01-10T18:42:12.179Z,181.20
2019-01-10T18:44:42.407Z,175.40
2019-01-10T18:47:13.051Z,176.57
2019-01-10T18:49:44.042Z,138.50
2019-01-10T18:52:12.739Z,153.23
2019-01-10T18:54:41.512Z,157.37
2019-01-10T18:57:10.177Z,371.83
2019-01-10T18:59:38.822Z,243.67
2019-01-10T19:02:07.733Z,293.00
2019-01-10T19:04:36.572Z,297.57
2019-01-10T19:07:05.925Z,184.43
2019-01-10T19:09:34.718Z,155.07
2019-01-10T19:12:04.862Z,168.37
2019-01-10T19:14:33.425Z,217.70
2019-01-10T19:17:02.543Z,149.63
2019-01-10T19:19:31.559Z,149.77
2019-01-10T19:22:00.450Z,167.13
2019-01-10T19:24:31.450Z,135.00
2019-01-10T19:26:59.578Z,164.03
2019-01-10T19:29:28.367Z,154.40
2019-01-10T19:31:57.847Z,153.23
2019-01-10T19:34:27.207Z,134.93
2019-01-10T19:36:56.458Z,163.80
2019-01-10T19:39:26.355Z,193.30
2019-01-10T19:41:55.480Z,163.43
2019-01-10T19:44:24.387Z,146.90
2019-01-10T19:46:53.020Z,434.63
2019-01-10T19:49:21.920Z,285.97
2019-01-10T19:51:52.080Z,173.90
2019-01-10T19:54:20.753Z,251.10
2019-01-10T19:56:49.640Z,229.63
2019-01-10T19:59:18.055Z,272.63
2019-01-10T20:01:46.705Z,278.73
2019-01-10T20:04:15.795Z,591.70
2019-01-10T20:06:45.013Z,449.30
2019-01-10T20:09:13.477Z,342.67
2019-01-10T20:11:44.514Z,322.90
2019-01-10T20:14:12.687Z,289.73
2019-01-10T20:16:41.245Z,222.30
2019-01-10T20:19:11.343Z,244.53
2019-01-10T20:21:39.807Z,214.50
2019-01-10T20:24:08.526Z,197.57
2019-01-10T20:26:36.967Z,238.97
2019-01-10T20:29:05.367Z,191.50
2019-01-10T20:31:33.989Z,180.33
2019-01-10T20:34:02.775Z,135.00
2019-01-10T20:36:31.324Z,216.53
2019-01-10T20:39:01.870Z,156.47
2019-01-10T20:41:31.409Z,103.00
2019-01-10T20:44:00.012Z,112.40
2019-01-10T20:46:28.908Z,150.80
2019-01-10T20:48:57.426Z,243.40
2019-01-10T20:51:25.936Z,162.20
2019-01-10T20:53:54.411Z,212.13
2019-01-10T20:56:23.252Z,199.63
2019-01-10T20:58:52.164Z,236.80
2019-01-10T21:01:21.256Z,308.03
2019-01-10T21:03:50.527Z,330.70
2019-01-10T21:06:19.191Z,340.27
2019-01-10T21:08:48.118Z,276.43
2019-01-10T21:11:16.742Z,223.37
2019-01-10T21:13:45.335Z,261.70
2019-01-10T21:16:14.107Z,258.50
2019-01-10T21:18:42.825Z,452.30
2019-01-10T21:21:11.232Z,287.33
2019-01-10T21:23:39.951Z,216.77
2019-01-10T21:26:08.700Z,280.00
2019-01-10T21:28:37.095Z,280.50
2019-01-10T21:31:05.975Z,219.37
2019-01-10T21:33:34.788Z,206.90
2019-01-10T21:36:03.184Z,135.40
2019-01-10T21:38:31.610Z,190.17
2019-01-10T21:41:00.746Z,156.43
2019-01-10T21:43:30.776Z,136.80
2019-01-10T21:46:00.372Z,201.67
2019-01-10T21:48:34.852Z,207.77
2019-01-10T21:50:59.128Z,215.47
2019-01-10T21:53:28.466Z,178.10
2019-01-10T21:55:57.204Z,278.47
2019-01-10T21:58:26.239Z,136.50
2019-01-10T22:00:55.439Z,174.43
2019-01-10T22:03:24.200Z,179.50
2019-01-10T22:05:52.919Z,189.33
2019-01-10T22:08:21.299Z,198.57
2019-01-10T22:10:49.819Z,211.43
2019-01-10T22:13:18.387Z,301.53
2019-01-10T22:15:46.862Z,351.00
2019-01-10T22:18:15.406Z,267.17
2019-01-10T22:20:43.796Z,261.30
2019-01-10T22:23:12.342Z,269.60
2019-01-10T22:25:40.897Z,230.37
2019-01-10T22:28:09.367Z,271.90
2019-01-10T22:30:37.960Z,351.97
2019-01-10T22:33:07.010Z,296.17
2019-01-10T22:35:35.668Z,407.23
2019-01-10T22:38:04.212Z,171.90
2019-01-10T22:40:33.032Z,331.87
2019-01-10T22:43:01.603Z,246.07
2019-01-10T22:45:31.102Z,251.33
2019-01-10T22:47:59.548Z,303.97
2019-01-10T22:50:28.168Z,143.87
2019-01-10T22:52:57.100Z,139.13
2019-01-10T22:55:25.711Z,156.40
2019-01-10T22:57:54.104Z,155.30
2019-01-10T23:00:52.554Z,118.20
2019-01-10T23:03:21.209Z,136.23
2019-01-10T23:05:49.676Z,236.17
2019-01-10T23:08:18.258Z,152.60
2019-01-10T23:10:46.653Z,163.57
2019-01-10T23:13:15.124Z,118.70
2019-01-10T23:15:43.661Z,125.17
2019-01-10T23:18:12.064Z,111.77
2019-01-10T23:20:40.467Z,94.20
2019-01-10T23:23:11.800Z,95.50
2019-01-10T23:25:40.610Z,94.70
2019-01-10T23:28:09.154Z,84.33
2019-01-10T23:30:49.208Z,96.40
2019-01-10T23:33:19.090Z,126.90
2019-01-10T23:35:48.823Z,100.97
2019-01-10T23:38:21.672Z,89.33
2019-01-10T23:40:50.151Z,110.60
2019-01-10T23:43:18.564Z,92.77
2019-01-10T23:45:48.365Z,98.70
2019-01-10T23:48:16.762Z,94.53
2019-01-10T23:50:45.459Z,79.23
2019-01-10T23:53:14.418Z,85.30
2019-01-10T23:55:42.907Z,84.30
2019-01-10T23:58:11.687Z,92.83
